createdAt,value
2022-09-12T00:01:06.940Z,101808.00
2022-09-12T00:04:12.830Z,101807.28
2022-09-12T00:07:16.783Z,101809.19
2022-09-12T00:10:21.131Z,101807.50
2022-09-12T00:13:26.107Z,101798.81
2022-09-12T00:16:32.679Z,101802.31
2022-09-12T00:19:36.327Z,101801.47
2022-09-12T00:22:39.943Z,101796.28
2022-09-12T00:25:45.030Z,101797.28
2022-09-12T00:28:50.658Z,101786.75
2022-09-12T00:31:54.363Z,101791.13
2022-09-12T00:34:57.975Z,101785.84
2022-09-12T00:38:01.595Z,101783.34
2022-09-12T00:41:05.424Z,101785.16
2022-09-12T00:44:48.277Z,101772.97
2022-09-12T00:47:51.988Z,101767.81
2022-09-12T00:50:55.779Z,101777.59
2022-09-12T00:54:04.039Z,101771.47
2022-09-12T00:57:11.784Z,101768.91
2022-09-12T01:00:20.898Z,101774.28
2022-09-12T01:03:26.465Z,101770.84
2022-09-12T01:06:36.695Z,101765.91
2022-09-12T01:09:43.220Z,101765.13
2022-09-12T01:12:47.615Z,101764.44
2022-09-12T01:15:54.336Z,101764.50
2022-09-12T01:19:26.658Z,101763.72
2022-09-12T01:23:02.550Z,101764.88
2022-09-12T01:26:27.672Z,101763.31
2022-09-12T01:30:07.188Z,101764.31
2022-09-12T01:33:41.142Z,101767.84
2022-09-12T01:37:00.480Z,101759.94
2022-09-12T01:40:16.677Z,101764.31
2022-09-12T01:43:31.918Z,101757.28
2022-09-12T01:46:46.777Z,101753.88
2022-09-12T01:50:01.606Z,101749.41
2022-09-12T01:53:14.786Z,101753.81
2022-09-12T01:56:25.043Z,101745.97
2022-09-12T01:59:36.085Z,101747.72
2022-09-12T02:02:50.728Z,101744.19
2022-09-12T02:06:04.305Z,101742.41
2022-09-12T02:09:16.119Z,101735.44
2022-09-12T02:12:26.928Z,101737.97
2022-09-12T02:15:38.999Z,101734.50
2022-09-12T02:18:51.843Z,101725.78
2022-09-12T02:22:01.377Z,101726.66
2022-09-12T02:25:10.614Z,101718.81
2022-09-12T02:28:22.796Z,101719.66
2022-09-12T02:31:35.023Z,101718.88
2022-09-12T02:34:49.822Z,101710.03
2022-09-12T02:38:03.584Z,101717.84
2022-09-12T02:41:07.445Z,101716.09
2022-09-12T02:44:11.403Z,101714.47
2022-09-12T02:47:26.450Z,101715.53
2022-09-12T02:50:30.435Z,101711.16
2022-09-12T02:53:37.003Z,101710.19
2022-09-12T02:56:45.811Z,101703.31
2022-09-12T02:59:54.504Z,101703.53
2022-09-12T03:03:40.180Z,101707.09
2022-09-12T03:07:02.472Z,101704.53
2022-09-12T03:10:24.163Z,101698.44
2022-09-12T03:13:44.837Z,101692.38
2022-09-12T03:17:01.717Z,101699.59
2022-09-12T03:20:12.846Z,101694.56
2022-09-12T03:23:31.163Z,101694.50
2022-09-12T03:26:44.669Z,101694.56
2022-09-12T03:29:49.899Z,101691.09
2022-09-12T03:32:56.063Z,101693.88
2022-09-12T03:35:59.747Z,101700.06
2022-09-12T03:39:03.282Z,101704.44
2022-09-12T03:42:08.350Z,101703.59
2022-09-12T03:45:13.182Z,101710.63
2022-09-12T03:48:16.930Z,101698.41
2022-09-12T03:51:20.915Z,101701.00
2022-09-12T03:54:24.659Z,101699.34
2022-09-12T03:57:29.813Z,101695.78
2022-09-12T04:00:33.493Z,101702.88
2022-09-12T04:03:37.075Z,101696.78
2022-09-12T04:06:41.686Z,101693.38
2022-09-12T04:09:45.566Z,101683.78
2022-09-12T04:12:50.599Z,101690.66
2022-09-12T04:16:01.586Z,101698.50
2022-09-12T04:19:05.343Z,101692.41
2022-09-12T04:22:08.964Z,101688.13
2022-09-12T04:25:13.430Z,101688.13
2022-09-12T04:28:18.379Z,101687.25
2022-09-12T04:31:23.585Z,101693.44
2022-09-12T04:34:31.784Z,101689.88
2022-09-12T04:37:35.587Z,101696.03
2022-09-12T04:40:39.362Z,101692.66
2022-09-12T04:43:46.565Z,101695.28
2022-09-12T04:46:50.622Z,101696.09
2022-09-12T04:49:54.232Z,101691.75
2022-09-12T04:52:58.150Z,101694.38
2022-09-12T04:56:04.714Z,101689.19
2022-09-12T04:59:11.988Z,101690.03
2022-09-12T05:02:16.403Z,101699.66
2022-09-12T05:05:20.126Z,101697.97
2022-09-12T05:08:23.757Z,101696.19
2022-09-12T05:11:53.021Z,101698.81
2022-09-12T05:14:55.931Z,101702.22
2022-09-12T05:17:59.517Z,101706.44
2022-09-12T05:21:05.308Z,101704.78
2022-09-12T05:24:09.011Z,101702.13
2022-09-12T05:27:12.551Z,101696.84
2022-09-12T05:30:17.666Z,101690.72
2022-09-12T05:33:24.994Z,101692.44
2022-09-12T05:36:32.442Z,101701.94
2022-09-12T05:39:35.984Z,101693.16
2022-09-12T05:42:39.568Z,101692.06
2022-09-12T05:45:45.200Z,101693.69
2022-09-12T05:48:55.628Z,101691.78
2022-09-12T05:51:59.828Z,101690.94
2022-09-12T05:55:03.459Z,101688.19
2022-09-12T05:58:07.473Z,101689.78
2022-09-12T06:01:16.016Z,101682.69
2022-09-12T06:04:19.754Z,101685.22
2022-09-12T06:07:23.390Z,101692.91
2022-09-12T06:10:27.091Z,101688.56
2022-09-12T06:13:33.135Z,101685.06
2022-09-12T06:16:38.698Z,101687.78
2022-09-12T06:19:42.363Z,101682.22
2022-09-12T06:22:45.963Z,101672.56
2022-09-12T06:25:50.640Z,101667.66
2022-09-12T06:29:10.303Z,101665.84
2022-09-12T06:32:15.502Z,101673.53
2022-09-12T06:35:19.206Z,101673.31
2022-09-12T06:38:22.854Z,101671.19
2022-09-12T06:41:27.186Z,101673.53
2022-09-12T06:44:31.681Z,101671.53
2022-09-12T06:47:37.258Z,101672.88
2022-09-12T06:50:40.775Z,101675.84
2022-09-12T06:53:46.093Z,101667.47
2022-09-12T06:56:49.964Z,101667.56
2022-09-12T06:59:53.528Z,101676.59
2022-09-12T07:02:58.639Z,101661.59
2022-09-12T07:06:06.340Z,101671.81
2022-09-12T07:09:13.821Z,101668.31
2022-09-12T07:12:17.471Z,101666.44
2022-09-12T07:15:31.787Z,101661.63
2022-09-12T07:18:39.167Z,101667.59
2022-09-12T07:21:43.159Z,101666.84
2022-09-12T07:24:47.755Z,101669.31
2022-09-12T07:27:51.420Z,101666.38
2022-09-12T07:30:56.071Z,101661.78
2022-09-12T07:34:01.087Z,101660.00
2022-09-12T07:37:05.047Z,101663.03
2022-09-12T07:40:10.480Z,101655.25
2022-09-12T07:43:14.303Z,101653.66
2022-09-12T07:46:18.127Z,101651.34
2022-09-12T07:49:23.130Z,101650.97
2022-09-12T07:52:26.775Z,101655.91
2022-09-12T07:55:30.886Z,101649.94
2022-09-12T07:58:36.928Z,101649.41
2022-09-12T08:01:41.649Z,101642.38
2022-09-12T08:04:48.387Z,101650.09
2022-09-12T08:07:55.799Z,101658.69
2022-09-12T08:11:02.627Z,101653.97
2022-09-12T08:14:06.730Z,101651.34
2022-09-12T08:17:10.727Z,101653.53
2022-09-12T08:20:15.935Z,101656.09
2022-09-12T08:23:21.871Z,101649.66
2022-09-12T08:26:25.889Z,101653.25
2022-09-12T08:29:29.607Z,101652.16
2022-09-12T08:32:33.187Z,101653.88
2022-09-12T08:35:38.193Z,101654.00
2022-09-12T08:38:44.324Z,101649.28
2022-09-12T08:41:51.350Z,101643.22
2022-09-12T08:45:18.032Z,101637.44
2022-09-12T08:48:21.687Z,101640.44
2022-09-12T08:51:27.166Z,101639.44
2022-09-12T08:54:33.613Z,101635.66
2022-09-12T08:57:37.266Z,101636.31
2022-09-12T09:00:52.290Z,101646.38
2022-09-12T09:04:20.649Z,101636.16
2022-09-12T09:07:55.681Z,101635.28
2022-09-12T09:11:12.792Z,101627.56
2022-09-12T09:14:50.830Z,101625.66
2022-09-12T09:18:00.486Z,101617.56
2022-09-12T09:21:13.603Z,101622.22
2022-09-12T09:24:26.064Z,101618.56
2022-09-12T09:27:40.760Z,101615.78
2022-09-12T09:30:46.037Z,101614.41
2022-09-12T09:33:54.172Z,101613.09
2022-09-12T09:37:09.100Z,101615.16
2022-09-12T09:40:25.604Z,101620.88
2022-09-12T09:43:29.576Z,101615.66
2022-09-12T09:46:34.495Z,101610.72
2022-09-12T09:49:38.232Z,101614.06
2022-09-12T09:52:42.317Z,101618.69
2022-09-12T09:55:47.907Z,101618.88
2022-09-12T09:58:51.651Z,101617.38
2022-09-12T10:02:02.234Z,101613.56
2022-09-12T10:05:06.424Z,101621.56
2022-09-12T10:08:11.385Z,101611.38
2022-09-12T10:11:26.945Z,101615.56
2022-09-12T10:14:41.148Z,101622.09
2022-09-12T10:17:47.932Z,101610.41
2022-09-12T10:20:51.767Z,101608.34
2022-09-12T10:24:05.310Z,101604.06
2022-09-12T10:27:18.902Z,101597.59
2022-09-12T10:30:25.242Z,101592.81
2022-09-12T10:33:31.679Z,101588.06
2022-09-12T10:36:41.058Z,101585.59
2022-09-12T10:39:54.591Z,101579.13
2022-09-12T10:43:19.185Z,101583.69
2022-09-12T10:46:29.631Z,101580.41
2022-09-12T10:49:38.708Z,101573.94
2022-09-12T10:52:42.373Z,101568.63
2022-09-12T10:56:09.615Z,101552.47
2022-09-12T10:59:29.072Z,101561.00
2022-09-12T11:02:50.804Z,101553.41
2022-09-12T11:06:00.060Z,101555.53
2022-09-12T11:09:16.087Z,101548.53
2022-09-12T11:12:34.015Z,101547.16
2022-09-12T11:15:57.929Z,101546.16
2022-09-12T11:19:23.206Z,101544.44
2022-09-12T11:22:45.642Z,101544.25
2022-09-12T11:26:01.177Z,101541.50
2022-09-12T11:29:22.183Z,101530.81
2022-09-12T11:33:08.255Z,101540.25
2022-09-12T11:36:28.998Z,101530.88
2022-09-12T11:39:40.522Z,101534.06
2022-09-12T11:42:47.575Z,101523.41
2022-09-12T11:45:52.990Z,101524.91
2022-09-12T11:49:05.584Z,101527.25
2022-09-12T11:52:18.034Z,101525.34
2022-09-12T11:55:29.849Z,101525.53
2022-09-12T11:58:34.016Z,101520.84
2022-09-12T12:01:48.574Z,101513.78
2022-09-12T12:05:17.209Z,101515.94
2022-09-12T12:08:23.760Z,101504.13
2022-09-12T12:11:33.950Z,101502.03
2022-09-12T12:14:44.400Z,101502.31
2022-09-12T12:18:02.503Z,101502.44
2022-09-12T12:21:37.378Z,101497.06
2022-09-12T12:25:11.148Z,101498.06
2022-09-12T12:29:01.666Z,101495.00
2022-09-12T12:32:26.206Z,101493.84
2022-09-12T12:35:42.653Z,101493.81
2022-09-12T12:38:47.776Z,101491.88
2022-09-12T12:41:51.434Z,101492.00
2022-09-12T12:44:54.997Z,101478.88
2022-09-12T12:48:10.188Z,101469.94
2022-09-12T12:52:02.545Z,101463.75
2022-09-12T12:55:17.017Z,101456.56
2022-09-12T12:58:34.646Z,101458.59
2022-09-12T13:01:41.161Z,101455.97
2022-09-12T13:04:47.056Z,101455.59
2022-09-12T13:07:59.223Z,101444.06
2022-09-12T13:11:10.971Z,101435.56
2022-09-12T13:14:38.773Z,101419.72
2022-09-12T13:17:44.882Z,101422.53
2022-09-12T13:20:54.972Z,101417.53
2022-09-12T13:24:03.974Z,101415.25
2022-09-12T13:27:21.150Z,101410.59
2022-09-12T13:30:24.731Z,101408.03
2022-09-12T13:33:37.679Z,101406.06
2022-09-12T13:37:25.410Z,101410.97
2022-09-12T13:40:47.043Z,101400.22
2022-09-12T13:43:52.708Z,101392.72
2022-09-12T13:47:01.631Z,101397.03
2022-09-12T13:50:08.683Z,101394.38
2022-09-12T13:53:19.227Z,101391.78
2022-09-12T13:56:23.551Z,101385.09
2022-09-12T13:59:28.771Z,101380.84
2022-09-12T14:02:37.615Z,101374.78
2022-09-12T14:05:45.102Z,101372.63
2022-09-12T14:08:49.115Z,101368.84
2022-09-12T14:11:53.830Z,101371.53
2022-09-12T14:14:59.299Z,101362.66
2022-09-12T14:18:05.703Z,101355.72
2022-09-12T14:21:13.308Z,101347.41
2022-09-12T14:24:17.110Z,101340.13
2022-09-12T14:27:25.858Z,101335.91
2022-09-12T14:30:34.090Z,101344.03
2022-09-12T14:33:50.260Z,101340.59
2022-09-12T14:36:57.277Z,101335.75
2022-09-12T14:40:01.486Z,101333.66
2022-09-12T14:43:05.270Z,101330.16
2022-09-12T14:46:20.585Z,101337.78
2022-09-12T14:49:32.595Z,101330.13
2022-09-12T14:52:36.476Z,101325.88
2022-09-12T14:55:47.441Z,101321.13
2022-09-12T14:58:51.822Z,101317.13
2022-09-12T15:02:27.302Z,101317.22
2022-09-12T15:05:31.367Z,101296.47
2022-09-12T15:08:35.406Z,101302.78
2022-09-12T15:11:38.951Z,101304.22
2022-09-12T15:14:42.601Z,101308.59
2022-09-12T15:17:48.086Z,101293.63
2022-09-12T15:20:55.152Z,101292.03
2022-09-12T15:23:58.751Z,101302.19
2022-09-12T15:27:02.340Z,101295.41
2022-09-12T15:30:07.272Z,101291.38
2022-09-12T15:33:13.072Z,101291.25
2022-09-12T15:36:20.118Z,101287.88
2022-09-12T15:39:23.733Z,101285.69
2022-09-12T15:42:31.438Z,101291.47
2022-09-12T15:45:45.375Z,101298.44
2022-09-12T15:48:51.192Z,101291.91
2022-09-12T15:51:54.785Z,101288.81
2022-09-12T15:54:58.492Z,101284.03
2022-09-12T15:58:06.886Z,101287.38
2022-09-12T16:01:13.260Z,101278.13
2022-09-12T16:04:25.355Z,101279.72
2022-09-12T16:07:29.957Z,101287.19
2022-09-12T16:10:33.595Z,101278.94
2022-09-12T16:13:37.187Z,101278.22
2022-09-12T16:16:40.931Z,101272.78
2022-09-12T16:19:45.846Z,101274.81
2022-09-12T16:22:49.961Z,101273.09
2022-09-12T16:26:00.443Z,101263.94
2022-09-12T16:29:04.251Z,101265.03
2022-09-12T16:32:08.116Z,101260.31
2022-09-12T16:35:13.203Z,101254.56
2022-09-12T16:38:17.085Z,101246.41
2022-09-12T16:41:24.744Z,101238.84
2022-09-12T16:44:28.342Z,101227.88
2022-09-12T16:47:32.538Z,101227.88
2022-09-12T16:50:37.545Z,101222.28
2022-09-12T16:53:41.580Z,101217.91
2022-09-12T16:56:46.747Z,101215.31
2022-09-12T16:59:50.786Z,101212.22
2022-09-12T17:02:54.355Z,101214.28
2022-09-12T17:06:04.976Z,101210.13
2022-09-12T17:09:10.641Z,101207.31
2022-09-12T17:12:14.273Z,101205.53
2022-09-12T17:15:38.705Z,101205.00
2022-09-12T17:18:42.946Z,101202.69
2022-09-12T17:21:48.902Z,101199.31
2022-09-12T17:24:52.437Z,101194.03
2022-09-12T17:27:56.021Z,101197.03
2022-09-12T17:31:02.652Z,101193.31
2022-09-12T17:34:06.210Z,101187.09
2022-09-12T17:37:11.188Z,101176.97
2022-09-12T17:40:14.773Z,101179.16
2022-09-12T17:43:44.002Z,101185.94
2022-09-12T17:46:47.765Z,101184.72
2022-09-12T17:49:52.063Z,101174.59
2022-09-12T17:52:57.739Z,101178.69
2022-09-12T17:56:04.523Z,101186.50
2022-09-12T17:59:11.912Z,101175.72
2022-09-12T18:02:16.121Z,101177.06
2022-09-12T18:05:19.779Z,101166.06
2022-09-12T18:08:26.296Z,101172.63
2022-09-12T18:11:30.100Z,101167.03
2022-09-12T18:14:33.727Z,101168.38
2022-09-12T18:17:37.284Z,101163.47
2022-09-12T18:20:40.991Z,101175.22
2022-09-12T18:23:46.037Z,101168.38
2022-09-12T18:26:49.957Z,101161.72
2022-09-12T18:30:17.236Z,101158.69
2022-09-12T18:33:20.766Z,101158.59
2022-09-12T18:36:26.962Z,101158.22
2022-09-12T18:39:32.031Z,101151.66
2022-09-12T18:42:35.632Z,101154.88
2022-09-12T18:45:39.294Z,101156.00
2022-09-12T18:48:46.946Z,101157.13
2022-09-12T18:51:50.574Z,101153.03
2022-09-12T18:54:55.538Z,101153.41
2022-09-12T18:57:59.106Z,101151.19
2022-09-12T19:01:11.322Z,101133.09
2022-09-12T19:04:16.523Z,101132.78
2022-09-12T19:07:20.163Z,101135.00
2022-09-12T19:10:25.691Z,101135.34
2022-09-12T19:13:29.461Z,101135.13
2022-09-12T19:16:33.695Z,101148.47
2022-09-12T19:19:40.483Z,101143.69
2022-09-12T19:22:44.347Z,101146.69
2022-09-12T19:25:58.910Z,101139.78
2022-09-12T19:29:03.072Z,101142.66
2022-09-12T19:32:06.871Z,101148.03
2022-09-12T19:35:12.858Z,101150.13
2022-09-12T19:38:17.280Z,101138.16
2022-09-12T19:41:22.372Z,101135.50
2022-09-12T19:44:27.627Z,101130.63
2022-09-12T19:47:31.322Z,101130.09
2022-09-12T19:50:34.877Z,101127.63
2022-09-12T19:53:38.509Z,101127.81
2022-09-12T19:56:43.833Z,101122.81
2022-09-12T19:59:48.085Z,101116.84
2022-09-12T20:02:52.805Z,101105.66
2022-09-12T20:06:20.476Z,101107.72
2022-09-12T20:09:24.027Z,101106.22
2022-09-12T20:12:29.164Z,101094.09
2022-09-12T20:15:45.392Z,101076.66
2022-09-12T20:18:49.824Z,101077.69
2022-09-12T20:21:53.591Z,101065.47
2022-09-12T20:24:57.414Z,101060.44
2022-09-12T20:28:03.157Z,101057.16
2022-09-12T20:31:12.400Z,101054.78
2022-09-12T20:34:18.968Z,101060.25
2022-09-12T20:37:22.839Z,101067.47
2022-09-12T20:40:26.524Z,101063.38
2022-09-12T20:43:31.697Z,101055.44
2022-09-12T20:46:35.574Z,101054.66
2022-09-12T20:49:39.320Z,101049.13
2022-09-12T20:52:42.966Z,101054.25
2022-09-12T20:55:51.648Z,101048.69
2022-09-12T20:58:57.414Z,101041.78
2022-09-12T21:02:01.295Z,101030.34
2022-09-12T21:05:05.521Z,101030.53
2022-09-12T21:08:09.194Z,101024.22
2022-09-12T21:11:13.103Z,101021.97
2022-09-12T21:14:18.088Z,101013.44
2022-09-12T21:17:21.783Z,101016.44
2022-09-12T21:20:25.367Z,101007.97
2022-09-12T21:23:31.014Z,101007.81
2022-09-12T21:26:34.729Z,101006.09
2022-09-12T21:29:39.681Z,101002.69
2022-09-12T21:32:43.319Z,101006.25
2022-09-12T21:35:47.121Z,101007.88
2022-09-12T21:38:50.680Z,101002.34
2022-09-12T21:41:54.368Z,101000.97
2022-09-12T21:44:59.439Z,100996.78
2022-09-12T21:48:03.875Z,100988.00
2022-09-12T21:51:08.186Z,100995.00
2022-09-12T21:54:11.870Z,100986.72
2022-09-12T21:57:15.503Z,100991.25
2022-09-12T22:00:20.547Z,100986.16
2022-09-12T22:03:24.341Z,100989.53
2022-09-12T22:06:28.082Z,100979.75
2022-09-12T22:09:31.625Z,100980.69
2022-09-12T22:12:35.121Z,100976.50
2022-09-12T22:15:41.220Z,100976.22
2022-09-12T22:18:46.596Z,100963.09
2022-09-12T22:22:07.288Z,100964.63
2022-09-12T22:25:11.950Z,100952.41
2022-09-12T22:28:16.041Z,100950.28
2022-09-12T22:31:21.657Z,100946.72
2022-09-12T22:34:25.731Z,100943.28
2022-09-12T22:37:29.264Z,100955.56
2022-09-12T22:40:33.319Z,100942.94
2022-09-12T22:43:37.584Z,100936.59
2022-09-12T22:46:42.609Z,100937.28
2022-09-12T22:49:47.723Z,100925.16
2022-09-12T22:52:55.396Z,100933.06
2022-09-12T22:55:59.127Z,100923.03
2022-09-12T22:59:02.877Z,100919.38
2022-09-12T23:02:08.507Z,100915.66
2022-09-12T23:05:12.415Z,100912.53
2022-09-12T23:08:16.931Z,100918.50
2022-09-12T23:11:22.260Z,100916.44
2022-09-12T23:14:25.924Z,100915.59
2022-09-12T23:17:30.955Z,100914.44
2022-09-12T23:20:34.510Z,100909.28
2022-09-12T23:23:38.995Z,100905.63
2022-09-12T23:26:42.939Z,100913.81
2022-09-12T23:29:46.598Z,100910.31
2022-09-12T23:32:51.792Z,100909.63
2022-09-12T23:36:00.315Z,100904.00
2022-09-12T23:39:04.290Z,100910.66
2022-09-12T23:42:08.113Z,100904.69
2022-09-12T23:45:12.594Z,100905.03
2022-09-12T23:48:18.573Z,100904.16
2022-09-12T23:51:22.838Z,100898.69
2022-09-12T23:54:26.558Z,100900.91
2022-09-12T23:57:30.122Z,100893.56
